createdAt,value
2018-03-30T00:02:17.476Z,4.07
2018-03-30T00:05:40.921Z,5.03
2018-03-30T00:09:04.200Z,4.17
2018-03-30T00:12:27.468Z,3.80
2018-03-30T00:15:50.748Z,3.37
2018-03-30T00:19:14.054Z,3.93
2018-03-30T00:22:37.418Z,4.47
2018-03-30T00:26:00.732Z,4.03
2018-03-30T00:29:24.758Z,4.63
2018-03-30T00:32:48.060Z,3.63
2018-03-30T00:36:11.329Z,4.87
2018-03-30T00:39:34.659Z,5.23
2018-03-30T00:42:57.884Z,4.83
2018-03-30T00:46:22.000Z,5.63
2018-03-30T00:49:45.288Z,8.33
2018-03-30T00:53:27.441Z,8.53
2018-03-30T00:56:51.550Z,9.53
2018-03-30T01:00:14.810Z,10.23
2018-03-30T01:03:38.902Z,9.70
2018-03-30T01:07:02.200Z,9.70
2018-03-30T01:10:25.487Z,9.83
2018-03-30T01:13:48.758Z,10.03
2018-03-30T01:17:12.050Z,10.30
2018-03-30T01:20:35.372Z,12.20
2018-03-30T01:23:59.419Z,10.00
2018-03-30T01:27:22.698Z,10.30
2018-03-30T01:30:45.992Z,8.60
2018-03-30T01:34:09.298Z,15.53
2018-03-30T01:37:32.640Z,12.80
2018-03-30T01:40:55.910Z,11.00
2018-03-30T01:44:19.184Z,9.53
2018-03-30T01:47:43.293Z,10.07
2018-03-30T01:51:06.552Z,9.67
2018-03-30T01:54:29.859Z,10.17
2018-03-30T01:57:53.137Z,10.90
2018-03-30T02:01:16.414Z,8.73
2018-03-30T02:04:39.692Z,9.70
2018-03-30T02:08:02.974Z,10.63
2018-03-30T02:11:26.257Z,9.87
2018-03-30T02:14:49.566Z,10.13
2018-03-30T02:18:12.846Z,11.20
2018-03-30T02:21:36.134Z,9.07
2018-03-30T02:24:59.405Z,9.23
2018-03-30T02:28:22.687Z,9.07
2018-03-30T02:31:46.035Z,11.03
2018-03-30T02:35:10.124Z,9.53
2018-03-30T02:38:33.404Z,8.77
2018-03-30T02:41:57.540Z,11.83
2018-03-30T02:45:20.873Z,13.77
2018-03-30T02:48:44.227Z,12.40
2018-03-30T02:52:07.518Z,14.93
2018-03-30T02:55:30.896Z,13.17
2018-03-30T02:58:54.339Z,13.67
2018-03-30T03:02:18.381Z,12.53
2018-03-30T03:05:41.673Z,17.30
2018-03-30T03:09:04.966Z,16.47
2018-03-30T03:12:28.315Z,20.07
2018-03-30T03:15:51.680Z,23.27
2018-03-30T03:19:15.033Z,26.77
2018-03-30T03:22:38.360Z,26.47
2018-03-30T03:26:01.648Z,25.37
2018-03-30T03:29:24.944Z,28.43
2018-03-30T03:32:48.315Z,28.63
2018-03-30T03:36:11.662Z,38.10
2018-03-30T03:39:34.926Z,36.90
2018-03-30T03:42:59.034Z,38.33
2018-03-30T03:46:22.382Z,38.20
2018-03-30T03:49:45.682Z,41.07
2018-03-30T03:53:11.583Z,35.57
2018-03-30T03:56:35.638Z,40.10
2018-03-30T03:59:58.976Z,33.87
2018-03-30T04:03:23.020Z,39.87
2018-03-30T04:06:46.336Z,40.03
2018-03-30T04:10:09.661Z,39.67
2018-03-30T04:13:32.948Z,32.37
2018-03-30T04:16:56.256Z,33.40
2018-03-30T04:20:19.618Z,36.70
2018-03-30T04:23:43.954Z,35.37
2018-03-30T04:27:07.258Z,32.80
2018-03-30T04:30:30.596Z,36.70
2018-03-30T04:33:53.886Z,36.07
2018-03-30T04:37:17.172Z,28.43
2018-03-30T04:44:03.300Z,26.00
2018-03-30T04:50:49.500Z,23.83
2018-03-30T14:18:05.111Z,5.57
